Time,TemperatureF,DewpointF,PressureIn,WindDirection,WindDirectionDegrees,WindSpeedMPH,WindSpeedGustMPH,Humidity,HourlyPrecipIn,Conditions,Clouds,dailyrainin,SoftwareType,DateUTC
2013-02-24 00:05:00,24.8,21.8,29.80,West,268,10.0,19.0,88,0.00,,---,0.00,VWS V14.01,2013-02-24 07:05:00,
2013-02-24 00:10:00,24.8,21.5,29.80,West,266,12.0,14.0,87,0.00,,---,0.00,VWS V14.01,2013-02-24 07:10:00,
2013-02-24 00:16:00,24.8,20.9,29.79,West,265,19.0,19.0,85,0.00,,---,0.00,VWS V14.01,2013-02-24 07:16:00,
2013-02-24 00:22:00,25.0,20.9,29.79,West,264,12.0,20.0,84,0.00,,---,0.00,VWS V14.01,2013-02-24 07:22:00,
2013-02-24 00:27:00,25.3,20.6,29.79,West,262,10.0,16.0,82,0.00,,---,0.00,VWS V14.01,2013-02-24 07:27:00,
2013-02-24 00:32:00,25.4,20.4,29.80,West,261,15.0,15.0,81,0.00,,---,0.00,VWS V14.01,2013-02-24 07:32:00,
2013-02-24 00:37:00,25.4,20.7,29.80,West,269,14.0,17.0,82,0.00,,---,0.00,VWS V14.01,2013-02-24 07:37:00,
2013-02-24 00:43:00,25.4,20.4,29.80,WNW,288,13.0,15.0,81,0.00,,---,0.00,VWS V14.01,2013-02-24 07:43:00,
2013-02-24 00:49:00,25.6,20.3,29.80,West,267,9.0,14.0,80,0.00,,---,0.00,VWS V14.01,2013-02-24 07:49:00,
2013-02-24 00:55:00,25.7,20.4,29.80,WSW,254,15.0,17.0,80,0.00,,---,0.00,VWS V14.01,2013-02-24 07:55:00,
2013-02-24 01:00:00,25.7,20.1,29.79,West,266,9.0,14.0,79,0.00,,---,0.00,VWS V14.01,2013-02-24 08:00:00,
2013-02-24 01:06:00,25.6,20.3,29.79,West,273,10.0,17.0,80,0.00,,---,0.00,VWS V14.01,2013-02-24 08:06:00,
2013-02-24 01:11:00,25.4,20.4,29.79,West,276,14.0,15.0,81,0.00,,---,0.00,VWS V14.01,2013-02-24 08:11:00,
2013-02-24 01:16:00,25.4,19.2,29.79,NW,319,14.0,21.0,77,0.00,,---,0.00,VWS V14.01,2013-02-24 08:16:00,
2013-02-24 01:21:00,25.4,17.6,29.79,WNW,283,7.0,19.0,72,0.00,,---,0.00,VWS V14.01,2013-02-24 08:21:00,
2013-02-24 01:26:00,25.4,16.0,29.79,WSW,258,14.0,15.0,67,0.00,,---,0.00,VWS V14.01,2013-02-24 08:26:00,
2013-02-24 01:32:00,25.3,16.2,29.81,West,261,13.0,15.0,68,0.00,,---,0.00,VWS V14.01,2013-02-24 08:32:00,
2013-02-24 01:38:00,25.0,15.9,29.81,WNW,286,10.0,13.0,68,0.00,,---,0.00,VWS V14.01,2013-02-24 08:38:00,
2013-02-24 01:44:00,24.8,16.4,29.80,WSW,253,11.0,14.0,70,0.00,,---,0.00,VWS V14.01,2013-02-24 08:44:00,
2013-02-24 01:49:00,24.4,17.0,29.80,WSW,247,13.0,14.0,73,0.00,,---,0.00,VWS V14.01,2013-02-24 08:49:00,
2013-02-24 01:55:00,23.9,16.8,29.80,WSW,254,12.0,12.0,74,0.00,,---,0.00,VWS V14.01,2013-02-24 08:55:00,
2013-02-24 02:00:00,23.6,16.5,29.81,WSW,244,6.0,12.0,74,0.00,,---,0.00,VWS V14.01,2013-02-24 09:00:00,
2013-02-24 02:06:00,23.6,16.2,29.81,WSW,237,9.0,16.0,73,0.00,,---,0.00,VWS V14.01,2013-02-24 09:06:00,
2013-02-24 02:11:00,23.5,17.1,29.81,WSW,252,11.0,17.0,76,0.00,,---,0.00,VWS V14.01,2013-02-24 09:11:00,
2013-02-24 02:16:00,23.5,15.8,29.81,WSW,258,9.0,12.0,72,0.00,,---,0.00,VWS V14.01,2013-02-24 09:16:00,
2013-02-24 02:22:00,23.2,15.8,29.81,WSW,254,9.0,12.0,73,0.00,,---,0.00,VWS V14.01,2013-02-24 09:22:00,
2013-02-24 02:27:00,22.9,16.2,29.81,WSW,246,6.0,10.0,75,0.00,,---,0.00,VWS V14.01,2013-02-24 09:27:00,
2013-02-24 02:32:00,22.5,15.8,29.81,WSW,256,9.0,15.0,75,0.00,,---,0.00,VWS V14.01,2013-02-24 09:32:00,
2013-02-24 02:38:00,22.2,15.5,29.81,WSW,238,12.0,17.0,75,0.00,,---,0.00,VWS V14.01,2013-02-24 09:38:00,
2013-02-24 02:44:00,22.2,15.5,29.82,SW,221,13.0,14.0,75,0.00,,---,0.00,VWS V14.01,2013-02-24 09:44:00,
2013-02-24 02:50:00,22.2,15.5,29.82,SW,234,11.0,14.0,75,0.00,,---,0.00,VWS V14.01,2013-02-24 09:50:00,
2013-02-24 02:55:00,22.2,15.8,29.82,SW,234,11.0,14.0,76,0.00,,---,0.00,VWS V14.01,2013-02-24 09:55:00,
2013-02-24 03:01:00,22.2,15.8,29.83,SW,222,12.0,12.0,76,0.00,,---,0.00,VWS V14.01,2013-02-24 10:01:00,
2013-02-24 03:06:00,21.9,15.8,29.83,SW,222,10.0,13.0,77,0.00,,---,0.00,VWS V14.01,2013-02-24 10:06:00,
2013-02-24 03:12:00,21.4,15.6,29.83,SW,236,11.0,15.0,78,0.00,,---,0.00,VWS V14.01,2013-02-24 10:12:00,
2013-02-24 03:17:00,21.3,15.5,29.85,SW,231,10.0,17.0,78,0.00,,---,0.00,VWS V14.01,2013-02-24 10:17:00,
2013-02-24 03:22:00,21.4,15.6,29.85,SW,230,11.0,12.0,78,0.00,,---,0.00,VWS V14.01,2013-02-24 10:22:00,
2013-02-24 03:27:00,21.4,15.6,29.85,SW,226,11.0,13.0,78,0.00,,---,0.00,VWS V14.01,2013-02-24 10:27:00,
2013-02-24 03:32:00,21.4,15.9,29.85,SW,230,9.0,11.0,79,0.00,,---,0.00,VWS V14.01,2013-02-24 10:32:00,
2013-02-24 03:38:00,21.4,15.9,29.85,SW,217,10.0,14.0,79,0.00,,---,0.00,VWS V14.01,2013-02-24 10:38:00,
2013-02-24 03:43:00,21.4,15.6,29.85,SSW,212,6.0,15.0,78,0.00,,---,0.00,VWS V14.01,2013-02-24 10:43:00,
2013-02-24 03:48:00,21.0,14.9,29.85,SSW,195,10.0,11.0,77,0.00,,---,0.00,VWS V14.01,2013-02-24 10:48:00,
2013-02-24 03:54:00,20.3,13.7,29.85,SSW,205,12.0,12.0,75,0.00,,---,0.00,VWS V14.01,2013-02-24 10:54:00,
2013-02-24 03:59:00,20.0,12.4,29.85,South,190,13.0,15.0,72,0.00,,---,0.00,VWS V14.01,2013-02-24 10:59:00,
2013-02-24 04:05:00,19.9,11.1,29.85,South,171,12.0,12.0,68,0.00,,---,0.00,VWS V14.01,2013-02-24 11:05:00,
2013-02-24 04:10:00,19.2,9.0,29.85,South,177,11.0,12.0,64,0.00,,---,0.00,VWS V14.01,2013-02-24 11:10:00,
2013-02-24 04:16:00,18.9,8.1,29.87,South,176,8.0,11.0,62,0.00,,---,0.00,VWS V14.01,2013-02-24 11:16:00,
2013-02-24 04:21:00,19.2,8.0,29.87,South,169,7.0,12.0,61,0.00,,---,0.00,VWS V14.01,2013-02-24 11:21:00,
2013-02-24 04:26:00,19.2,8.0,29.87,SSW,213,6.0,7.0,61,0.00,,---,0.00,VWS V14.01,2013-02-24 11:26:00,
2013-02-24 04:31:00,19.4,8.2,29.88,SW,221,4.0,4.0,61,0.00,,---,0.00,VWS V14.01,2013-02-24 11:31:00,
2013-02-24 04:36:00,19.4,7.4,29.88,SW,232,4.0,5.0,59,0.00,,---,0.00,VWS V14.01,2013-02-24 11:36:00,
2013-02-24 04:41:00,19.4,7.8,29.88,SSW,193,10.0,12.0,60,0.00,,---,0.00,VWS V14.01,2013-02-24 11:41:00,
2013-02-24 04:47:00,19.5,7.9,29.87,West,278,5.0,7.0,60,0.00,,---,0.00,VWS V14.01,2013-02-24 11:47:00,
2013-02-24 04:52:00,19.4,7.4,29.87,SSW,206,7.0,10.0,59,0.00,,---,0.00,VWS V14.01,2013-02-24 11:52:00,
2013-02-24 04:57:00,19.2,7.2,29.87,WSW,250,4.0,7.0,59,0.00,,---,0.00,VWS V14.01,2013-02-24 11:57:00,
2013-02-24 05:03:00,18.9,7.7,29.89,WSW,237,5.0,5.0,61,0.00,,---,0.00,VWS V14.01,2013-02-24 12:03:00,
2013-02-24 05:08:00,18.8,7.9,29.89,SW,216,6.0,9.0,62,0.00,,---,0.00,VWS V14.01,2013-02-24 12:08:00,
2013-02-24 05:13:00,18.6,7.8,29.89,SW,217,6.0,6.0,62,0.00,,---,0.00,VWS V14.01,2013-02-24 12:13:00,
2013-02-24 05:18:00,18.3,8.2,29.89,SSW,211,7.0,7.0,64,0.00,,---,0.00,VWS V14.01,2013-02-24 12:18:00,
2013-02-24 05:23:00,18.1,8.3,29.89,SW,216,3.0,5.0,65,0.00,,---,0.00,VWS V14.01,2013-02-24 12:23:00,
2013-02-24 05:29:00,18.0,8.9,29.90,SW,223,6.0,6.0,67,0.00,,---,0.00,VWS V14.01,2013-02-24 12:29:00,
2013-02-24 05:34:00,18.0,9.2,29.90,SW,215,3.0,5.0,68,0.00,,---,0.00,VWS V14.01,2013-02-24 12:34:00,
2013-02-24 05:39:00,18.0,9.2,29.90,SW,215,3.0,4.0,68,0.00,,---,0.00,VWS V14.01,2013-02-24 12:39:00,
2013-02-24 05:45:00,18.1,9.7,29.91,SW,215,1.0,4.0,69,0.00,,---,0.00,VWS V14.01,2013-02-24 12:45:00,
2013-02-24 05:50:00,18.3,10.2,29.91,SW,215,3.0,3.0,70,0.00,,---,0.00,VWS V14.01,2013-02-24 12:50:00,
2013-02-24 05:56:00,18.6,10.5,29.91,SW,215,3.0,3.0,70,0.00,,---,0.00,VWS V14.01,2013-02-24 12:56:00,
2013-02-24 06:01:00,18.9,12.0,29.90,NW,324,1.0,3.0,74,0.00,,---,0.00,VWS V14.01,2013-02-24 13:01:00,
2013-02-24 06:06:00,18.9,12.3,29.90,WNW,290,1.0,3.0,75,0.00,,---,0.00,VWS V14.01,2013-02-24 13:06:00,
2013-02-24 06:11:00,18.9,12.3,29.90,WNW,296,4.0,4.0,75,0.00,,---,0.00,VWS V14.01,2013-02-24 13:11:00,
2013-02-24 06:17:00,18.8,11.9,29.93,West,276,3.0,3.0,74,0.00,,---,0.00,VWS V14.01,2013-02-24 13:17:00,
2013-02-24 06:22:00,18.6,12.3,29.93,West,276,3.0,3.0,76,0.00,,---,0.00,VWS V14.01,2013-02-24 13:22:00,
2013-02-24 06:27:00,18.8,12.8,29.93,West,276,2.0,2.0,77,0.00,,---,0.00,VWS V14.01,2013-02-24 13:27:00,
2013-02-24 06:33:00,18.8,12.8,29.94,West,276,1.0,2.0,77,0.00,,---,0.00,VWS V14.01,2013-02-24 13:33:00,
2013-02-24 06:38:00,18.8,12.8,29.94,West,276,2.0,3.0,77,0.00,,---,0.00,VWS V14.01,2013-02-24 13:38:00,
2013-02-24 06:44:00,18.6,12.6,29.94,West,276,3.0,4.0,77,0.00,,---,0.00,VWS V14.01,2013-02-24 13:44:00,
2013-02-24 06:50:00,18.6,12.6,29.94,NNW,333,3.0,3.0,77,0.00,,---,0.00,VWS V14.01,2013-02-24 13:50:00,
2013-02-24 06:55:00,18.6,12.9,29.94,NNW,333,0.0,3.0,78,0.00,,---,0.00,VWS V14.01,2013-02-24 13:55:00,
2013-02-24 07:01:00,18.6,13.2,29.94,NNW,333,0.0,0.0,79,0.00,,---,0.00,VWS V14.01,2013-02-24 14:01:00,
2013-02-24 07:07:00,18.4,13.3,29.94,NNW,340,2.0,3.0,80,0.00,,---,0.00,VWS V14.01,2013-02-24 14:07:00,
2013-02-24 07:12:00,18.4,13.6,29.94,NNW,340,3.0,3.0,81,0.00,,---,0.00,VWS V14.01,2013-02-24 14:12:00,
2013-02-24 07:18:00,18.4,13.6,29.95,NNW,340,1.0,3.0,81,0.00,,---,0.00,VWS V14.01,2013-02-24 14:18:00,
2013-02-24 07:23:00,18.4,13.8,29.95,NNW,340,2.0,3.0,82,0.00,,---,0.00,VWS V14.01,2013-02-24 14:23:00,
2013-02-24 07:29:00,18.6,14.0,29.96,NNW,340,2.0,3.0,82,0.00,,---,0.00,VWS V14.01,2013-02-24 14:29:00,
2013-02-24 07:34:00,18.6,14.0,29.96,NNW,340,0.0,0.0,82,0.00,,---,0.00,VWS V14.01,2013-02-24 14:34:00,
2013-02-24 07:39:00,18.8,14.2,29.96,NNW,340,1.0,2.0,82,0.00,,---,0.00,VWS V14.01,2013-02-24 14:39:00,
2013-02-24 07:45:00,18.9,14.0,29.96,NNW,340,1.0,3.0,81,0.00,,---,0.00,VWS V14.01,2013-02-24 14:45:00,
2013-02-24 07:50:00,18.9,14.0,29.96,NNW,340,2.0,2.0,81,0.00,,---,0.00,VWS V14.01,2013-02-24 14:50:00,
2013-02-24 07:56:00,18.9,14.0,29.96,NNW,340,0.0,0.0,81,0.00,,---,0.00,VWS V14.01,2013-02-24 14:56:00,
2013-02-24 08:01:00,18.8,13.7,29.97,NNW,340,2.0,2.0,80,0.00,,---,0.00,VWS V14.01,2013-02-24 15:01:00,
2013-02-24 08:07:00,18.6,13.5,29.97,NNW,340,0.0,0.0,80,0.00,,---,0.00,VWS V14.01,2013-02-24 15:07:00,
2013-02-24 08:12:00,18.6,13.2,29.97,NNW,340,0.0,0.0,79,0.00,,---,0.00,VWS V14.01,2013-02-24 15:12:00,
2013-02-24 08:18:00,18.9,13.5,29.97,NNW,340,2.0,2.0,79,0.00,,---,0.00,VWS V14.01,2013-02-24 15:18:00,
2013-02-24 08:23:00,18.8,13.4,29.97,NNW,340,0.0,0.0,79,0.00,,---,0.00,VWS V14.01,2013-02-24 15:23:00,
2013-02-24 08:28:00,19.2,13.8,29.97,NNW,340,0.0,0.0,79,0.00,,---,0.00,VWS V14.01,2013-02-24 15:28:00,
2013-02-24 08:33:00,20.2,14.7,29.98,NNW,340,0.0,0.0,79,0.00,,---,0.00,VWS V14.01,2013-02-24 15:33:00,
2013-02-24 08:38:00,20.6,14.6,29.98,NNW,340,0.0,0.0,77,0.00,,---,0.00,VWS V14.01,2013-02-24 15:38:00,
2013-02-24 08:44:00,21.0,14.6,29.97,NNW,340,0.0,0.0,76,0.00,,---,0.00,VWS V14.01,2013-02-24 15:44:00,
2013-02-24 08:49:00,21.0,14.3,29.97,NNW,340,0.0,0.0,75,0.00,,---,0.00,VWS V14.01,2013-02-24 15:49:00,
2013-02-24 08:55:00,20.6,13.9,29.97,NNW,340,2.0,2.0,75,0.00,,---,0.00,VWS V14.01,2013-02-24 15:55:00,
2013-02-24 09:00:00,21.1,14.4,29.98,NNW,340,0.0,0.0,75,0.00,,---,0.00,VWS V14.01,2013-02-24 16:00:00,
2013-02-24 09:05:00,21.4,15.0,29.98,NNW,340,0.0,0.0,76,0.01,,---,0.01,VWS V14.01,2013-02-24 16:05:00,
2013-02-24 09:10:00,21.8,14.5,29.98,NNW,340,0.0,0.0,73,0.01,,---,0.01,VWS V14.01,2013-02-24 16:10:00,
2013-02-24 09:15:00,21.6,14.3,29.98,NE,41,2.0,3.0,73,0.01,,---,0.01,VWS V14.01,2013-02-24 16:15:00,
2013-02-24 09:20:00,21.3,14.3,29.98,NE,41,2.0,2.0,74,0.02,,---,0.02,VWS V14.01,2013-02-24 16:20:00,
2013-02-24 09:26:00,21.4,14.4,29.98,NE,41,3.0,3.0,74,0.02,,---,0.02,VWS V14.01,2013-02-24 16:26:00,
2013-02-24 09:32:00,21.8,15.1,29.99,NE,41,2.0,3.0,75,0.02,,---,0.02,VWS V14.01,2013-02-24 16:32:00,
2013-02-24 09:37:00,21.6,14.6,29.99,NE,41,3.0,4.0,74,0.02,,---,0.02,VWS V14.01,2013-02-24 16:37:00,
2013-02-24 09:43:00,21.1,14.7,29.99,NE,41,2.0,4.0,76,0.02,,---,0.02,VWS V14.01,2013-02-24 16:43:00,
2013-02-24 09:48:00,21.3,14.9,29.99,NE,45,4.0,6.0,76,0.02,,---,0.02,VWS V14.01,2013-02-24 16:48:00,
2013-02-24 09:53:00,21.9,15.5,29.99,NE,47,4.0,5.0,76,0.02,,---,0.02,VWS V14.01,2013-02-24 16:53:00,
2013-02-24 09:59:00,21.8,15.1,29.98,NE,55,4.0,4.0,75,0.02,,---,0.02,VWS V14.01,2013-02-24 16:59:00,
2013-02-24 10:05:00,21.4,15.0,29.98,NE,55,2.0,4.0,76,0.02,,---,0.02,VWS V14.01,2013-02-24 17:05:00,
2013-02-24 10:10:00,21.9,15.5,29.98,NE,53,3.0,5.0,76,0.01,,---,0.02,VWS V14.01,2013-02-24 17:10:00,
2013-02-24 10:15:00,22.5,16.1,29.99,NE,54,2.0,3.0,76,0.01,,---,0.02,VWS V14.01,2013-02-24 17:15:00,
2013-02-24 10:20:00,23.5,16.8,29.99,East,93,3.0,5.0,75,0.01,,---,0.03,VWS V14.01,2013-02-24 17:20:00,
2013-02-24 10:26:00,24.2,15.8,29.99,ENE,58,5.0,5.0,70,0.01,,---,0.03,VWS V14.01,2013-02-24 17:26:00,
2013-02-24 10:32:00,24.2,17.1,29.98,East,82,2.0,4.0,74,0.01,,---,0.03,VWS V14.01,2013-02-24 17:32:00,
2013-02-24 10:38:00,24.7,17.3,29.98,East,94,4.0,5.0,73,0.01,,---,0.03,VWS V14.01,2013-02-24 17:38:00,
2013-02-24 10:43:00,24.5,16.5,29.98,SE,128,3.0,5.0,71,0.01,,---,0.03,VWS V14.01,2013-02-24 17:43:00,
2013-02-24 10:48:00,24.5,16.8,29.97,ESE,107,3.0,4.0,72,0.01,,---,0.03,VWS V14.01,2013-02-24 17:48:00,
2013-02-24 10:53:00,24.8,16.4,29.97,East,98,5.0,8.0,70,0.01,,---,0.03,VWS V14.01,2013-02-24 17:53:00,
2013-02-24 10:58:00,24.7,16.0,29.97,ESE,115,3.0,6.0,69,0.01,,---,0.03,VWS V14.01,2013-02-24 17:58:00,
2013-02-24 11:03:00,24.8,16.1,29.97,ESE,105,0.0,3.0,69,0.01,,---,0.03,VWS V14.01,2013-02-24 18:03:00,
2013-02-24 11:08:00,25.0,15.9,29.97,ESE,115,1.0,2.0,68,0.01,,---,0.03,VWS V14.01,2013-02-24 18:08:00,
2013-02-24 11:13:00,25.6,17.5,29.97,South,171,4.0,5.0,71,0.01,,---,0.03,VWS V14.01,2013-02-24 18:13:00,
2013-02-24 11:18:00,25.6,17.2,29.98,ESE,123,4.0,4.0,70,0.00,,---,0.03,VWS V14.01,2013-02-24 18:18:00,
2013-02-24 11:24:00,25.7,17.0,29.98,ESE,120,5.0,6.0,69,0.01,,---,0.04,VWS V14.01,2013-02-24 18:24:00,
2013-02-24 11:29:00,25.6,16.5,29.98,ESE,119,1.0,2.0,68,0.01,,---,0.04,VWS V14.01,2013-02-24 18:29:00,
2013-02-24 11:34:00,25.8,16.7,29.98,ESE,119,0.0,4.0,68,0.01,,---,0.04,VWS V14.01,2013-02-24 18:34:00,
2013-02-24 11:40:00,26.0,17.6,29.98,South,182,2.0,2.0,70,0.01,,---,0.04,VWS V14.01,2013-02-24 18:40:00,
2013-02-24 11:45:00,26.4,17.3,29.98,South,182,0.0,0.0,68,0.01,,---,0.04,VWS V14.01,2013-02-24 18:45:00,
2013-02-24 11:50:00,27.3,16.8,29.98,South,182,0.0,0.0,64,0.01,,---,0.04,VWS V14.01,2013-02-24 18:50:00,
2013-02-24 11:56:00,28.5,17.9,29.98,South,182,2.0,2.0,64,0.01,,---,0.04,VWS V14.01,2013-02-24 18:56:00,
2013-02-24 12:02:00,28.8,17.1,29.95,South,182,3.0,3.0,61,0.01,,---,0.04,VWS V14.01,2013-02-24 19:02:00,
2013-02-24 12:07:00,28.8,17.4,29.95,NW,315,3.0,4.0,62,0.01,,---,0.04,VWS V14.01,2013-02-24 19:07:00,
2013-02-24 12:12:00,28.8,17.4,29.95,WSW,254,0.0,0.0,62,0.01,,---,0.04,VWS V14.01,2013-02-24 19:12:00,
2013-02-24 12:17:00,28.8,17.4,29.95,North,360,3.0,4.0,62,0.01,,---,0.04,VWS V14.01,2013-02-24 19:17:00,
2013-02-24 12:23:00,28.4,16.7,29.95,NW,325,4.0,4.0,61,0.00,,---,0.04,VWS V14.01,2013-02-24 19:23:00,
2013-02-24 12:28:00,28.2,16.9,29.95,NW,325,0.0,0.0,62,0.00,,---,0.04,VWS V14.01,2013-02-24 19:28:00,
2013-02-24 12:33:00,28.5,16.4,29.95,NW,325,2.0,3.0,60,0.00,,---,0.04,VWS V14.01,2013-02-24 19:33:00,
2013-02-24 12:38:00,29.0,16.1,29.95,NNW,329,2.0,5.0,58,0.00,,---,0.04,VWS V14.01,2013-02-24 19:38:00,
2013-02-24 12:43:00,29.4,16.9,29.95,NNW,329,2.0,4.0,59,0.00,,---,0.04,VWS V14.01,2013-02-24 19:43:00,
2013-02-24 12:49:00,29.5,17.7,29.95,NNW,329,0.0,1.0,61,0.00,,---,0.04,VWS V14.01,2013-02-24 19:49:00,
2013-02-24 12:54:00,29.8,18.4,29.95,NNW,332,4.0,9.0,62,0.00,,---,0.04,VWS V14.01,2013-02-24 19:54:00,
2013-02-24 12:59:00,30.0,17.0,29.93,WNW,292,0.0,5.0,58,0.00,,---,0.04,VWS V14.01,2013-02-24 19:59:00,
2013-02-24 13:04:00,30.1,17.5,29.93,NW,313,1.0,4.0,59,0.00,,---,0.04,VWS V14.01,2013-02-24 20:04:00,
2013-02-24 13:09:00,30.3,17.7,29.93,NNW,336,5.0,6.0,59,0.00,,---,0.04,VWS V14.01,2013-02-24 20:09:00,
2013-02-24 13:14:00,30.3,18.5,29.94,NW,321,4.0,5.0,61,0.00,,---,0.04,VWS V14.01,2013-02-24 20:14:00,
2013-02-24 13:20:00,30.6,17.2,29.94,NW,324,0.0,3.0,57,0.00,,---,0.04,VWS V14.01,2013-02-24 20:20:00,
2013-02-24 13:25:00,30.7,18.1,29.94,WNW,288,2.0,5.0,59,0.00,,---,0.04,VWS V14.01,2013-02-24 20:25:00,
2013-02-24 13:30:00,30.1,17.9,29.94,West,270,0.0,0.0,60,0.00,,---,0.04,VWS V14.01,2013-02-24 20:30:00,
2013-02-24 13:36:00,30.0,17.4,29.94,NW,323,0.0,1.0,59,0.00,,---,0.04,VWS V14.01,2013-02-24 20:36:00,
2013-02-24 13:41:00,30.4,18.2,29.94,WNW,287,4.0,6.0,60,0.00,,---,0.04,VWS V14.01,2013-02-24 20:41:00,
2013-02-24 13:46:00,30.6,18.8,29.93,West,278,1.0,6.0,61,0.00,,---,0.04,VWS V14.01,2013-02-24 20:46:00,
2013-02-24 13:51:00,30.9,19.0,29.93,WNW,296,2.0,8.0,61,0.00,,---,0.04,VWS V14.01,2013-02-24 20:51:00,
2013-02-24 13:56:00,30.6,21.0,29.93,West,268,7.0,7.0,67,0.00,,---,0.04,VWS V14.01,2013-02-24 20:56:00,
2013-02-24 14:01:00,30.6,20.2,29.93,NW,304,4.0,9.0,65,0.00,,---,0.04,VWS V14.01,2013-02-24 21:01:00,
2013-02-24 14:06:00,31.3,21.6,29.93,West,263,3.0,6.0,67,0.00,,---,0.04,VWS V14.01,2013-02-24 21:06:00,
2013-02-24 14:11:00,31.2,20.5,29.93,SW,215,6.0,9.0,64,0.00,,---,0.04,VWS V14.01,2013-02-24 21:11:00,
2013-02-24 14:17:00,31.0,19.9,29.95,WNW,290,5.0,6.0,63,0.00,,---,0.04,VWS V14.01,2013-02-24 21:17:00,
2013-02-24 14:22:00,30.6,19.5,29.95,West,267,7.0,9.0,63,0.00,,---,0.04,VWS V14.01,2013-02-24 21:22:00,
2013-02-24 14:27:00,30.9,20.2,29.95,West,270,0.0,4.0,64,0.00,,---,0.04,VWS V14.01,2013-02-24 21:27:00,
2013-02-24 14:32:00,31.6,18.9,29.95,SSW,208,10.0,10.0,59,0.00,,---,0.04,VWS V14.01,2013-02-24 21:32:00,
2013-02-24 14:38:00,32.2,19.5,29.95,SW,220,6.0,11.0,59,0.00,,---,0.04,VWS V14.01,2013-02-24 21:38:00,
2013-02-24 14:44:00,31.8,20.3,29.94,WSW,250,4.0,6.0,62,0.00,,---,0.04,VWS V14.01,2013-02-24 21:44:00,
2013-02-24 14:49:00,31.8,19.5,29.94,WSW,254,2.0,4.0,60,0.00,,---,0.04,VWS V14.01,2013-02-24 21:49:00,
2013-02-24 14:54:00,31.9,21.1,29.94,WSW,254,1.0,3.0,64,0.00,,---,0.04,VWS V14.01,2013-02-24 21:54:00,
2013-02-24 14:59:00,32.5,20.2,29.94,SSW,209,6.0,9.0,60,0.00,,---,0.04,VWS V14.01,2013-02-24 21:59:00,
2013-02-24 15:04:00,32.5,19.8,29.94,West,263,2.0,4.0,59,0.00,,---,0.04,VWS V14.01,2013-02-24 22:04:00,
2013-02-24 15:10:00,32.5,19.0,29.94,SW,231,0.0,7.0,57,0.00,,---,0.04,VWS V14.01,2013-02-24 22:10:00,
2013-02-24 15:15:00,32.5,19.8,29.95,SW,215,3.0,4.0,59,0.00,,---,0.04,VWS V14.01,2013-02-24 22:15:00,
2013-02-24 15:21:00,32.5,18.6,29.95,SW,219,0.0,1.0,56,0.00,,---,0.04,VWS V14.01,2013-02-24 22:21:00,
2013-02-24 15:26:00,32.4,18.5,29.95,WSW,238,4.0,4.0,56,0.00,,---,0.04,VWS V14.01,2013-02-24 22:26:00,
2013-02-24 15:32:00,32.5,18.1,29.96,WSW,239,1.0,2.0,55,0.00,,---,0.04,VWS V14.01,2013-02-24 22:32:00,
2013-02-24 15:37:00,32.9,18.9,29.96,WSW,239,0.0,2.0,56,0.00,,---,0.04,VWS V14.01,2013-02-24 22:37:00,
2013-02-24 15:42:00,32.8,18.4,29.96,WSW,238,0.0,2.0,55,0.00,,---,0.04,VWS V14.01,2013-02-24 22:42:00,
2013-02-24 15:47:00,33.1,19.1,29.97,NE,38,0.0,2.0,56,0.00,,---,0.04,VWS V14.01,2013-02-24 22:47:00,
2013-02-24 15:52:00,33.4,19.0,29.97,East,100,4.0,4.0,55,0.00,,---,0.04,VWS V14.01,2013-02-24 22:52:00,
2013-02-24 15:57:00,33.1,19.1,29.97,East,84,4.0,5.0,56,0.00,,---,0.04,VWS V14.01,2013-02-24 22:57:00,
2013-02-24 16:03:00,32.9,18.9,29.97,NE,51,3.0,3.0,56,0.00,,---,0.04,VWS V14.01,2013-02-24 23:03:00,
2013-02-24 16:09:00,33.5,19.5,29.97,NE,49,0.0,3.0,56,0.00,,---,0.04,VWS V14.01,2013-02-24 23:09:00,
2013-02-24 16:14:00,33.7,19.7,29.98,NE,47,0.0,2.0,56,0.00,,---,0.04,VWS V14.01,2013-02-24 23:14:00,
2013-02-24 16:19:00,33.7,19.3,29.98,North,5,3.0,6.0,55,0.00,,---,0.04,VWS V14.01,2013-02-24 23:19:00,
2013-02-24 16:25:00,34.6,19.7,29.98,NNE,12,4.0,5.0,54,0.00,,---,0.04,VWS V14.01,2013-02-24 23:25:00,
2013-02-24 16:30:00,34.6,20.1,29.97,NNE,18,1.0,3.0,55,0.00,,---,0.04,VWS V14.01,2013-02-24 23:30:00,
2013-02-24 16:35:00,34.4,19.0,29.97,NNE,18,2.0,4.0,53,0.00,,---,0.04,VWS V14.01,2013-02-24 23:35:00,
2013-02-24 16:41:00,33.8,18.9,29.97,NNE,18,0.0,0.0,54,0.00,,---,0.04,VWS V14.01,2013-02-24 23:41:00,
2013-02-24 16:46:00,33.5,19.1,29.99,NNE,18,0.0,0.0,55,0.00,,---,0.04,VWS V14.01,2013-02-24 23:46:00,
2013-02-24 16:51:00,34.1,18.8,29.99,NNE,18,0.0,1.0,53,0.00,,---,0.04,VWS V14.01,2013-02-24 23:51:00,
2013-02-24 16:56:00,34.7,18.4,29.99,NNE,18,0.0,1.0,51,0.00,,---,0.04,VWS V14.01,2013-02-24 23:56:00,
2013-02-24 17:02:00,34.9,18.6,29.99,NNE,18,1.0,4.0,51,0.00,,---,0.04,VWS V14.01,2013-02-25 00:02:00,
2013-02-24 17:08:00,34.9,18.6,29.99,NNE,18,1.0,2.0,51,0.00,,---,0.04,VWS V14.01,2013-02-25 00:08:00,
2013-02-24 17:13:00,34.9,18.6,29.99,NNE,17,4.0,5.0,51,0.00,,---,0.04,VWS V14.01,2013-02-25 00:13:00,
2013-02-24 17:19:00,34.6,17.9,30.00,NNE,17,0.0,0.0,50,0.00,,---,0.04,VWS V14.01,2013-02-25 00:19:00,
2013-02-24 17:25:00,34.0,17.3,30.00,NNE,17,3.0,4.0,50,0.00,,---,0.04,VWS V14.01,2013-02-25 00:25:00,
2013-02-24 17:30:00,33.4,17.7,30.02,NNE,17,0.0,0.0,52,0.00,,---,0.04,VWS V14.01,2013-02-25 00:30:00,
2013-02-24 17:35:00,32.8,17.1,30.02,NNE,17,0.0,0.0,52,0.00,,---,0.04,VWS V14.01,2013-02-25 00:35:00,
2013-02-24 17:40:00,32.2,17.0,30.02,NNE,17,0.0,0.0,53,0.00,,---,0.04,VWS V14.01,2013-02-25 00:40:00,
2013-02-24 17:45:00,31.8,17.1,30.03,NNE,17,0.0,0.0,54,0.00,,---,0.04,VWS V14.01,2013-02-25 00:45:00,
2013-02-24 17:50:00,31.3,17.0,30.03,NNE,17,0.0,0.0,55,0.00,,---,0.04,VWS V14.01,2013-02-25 00:50:00,
2013-02-24 17:56:00,30.6,17.2,30.03,NNE,17,2.0,2.0,57,0.00,,---,0.04,VWS V14.01,2013-02-25 00:56:00,
2013-02-24 18:01:00,29.7,18.3,30.05,NNE,17,1.0,2.0,62,0.00,,---,0.04,VWS V14.01,2013-02-25 01:01:00,
2013-02-24 18:06:00,28.7,18.8,30.05,NNE,17,2.0,2.0,66,0.00,,---,0.04,VWS V14.01,2013-02-25 01:06:00,
2013-02-24 18:11:00,28.4,17.8,30.05,NNE,17,2.0,3.0,64,0.00,,---,0.04,VWS V14.01,2013-02-25 01:11:00,
2013-02-24 18:16:00,28.2,17.6,30.08,NNE,17,3.0,3.0,64,0.00,,---,0.04,VWS V14.01,2013-02-25 01:16:00,
2013-02-24 18:21:00,28.2,18.0,30.08,NNE,20,2.0,3.0,65,0.00,,---,0.04,VWS V14.01,2013-02-25 01:21:00,
2013-02-24 18:26:00,28.2,18.3,30.08,NNE,20,2.0,2.0,66,0.00,,---,0.04,VWS V14.01,2013-02-25 01:26:00,
2013-02-24 18:32:00,28.1,18.9,30.08,NNE,20,1.0,2.0,68,0.00,,---,0.04,VWS V14.01,2013-02-25 01:32:00,
2013-02-24 18:37:00,27.8,19.0,30.08,NNE,20,1.0,2.0,69,0.00,,---,0.04,VWS V14.01,2013-02-25 01:37:00,
2013-02-24 18:42:00,27.6,19.4,30.08,NNE,20,0.0,0.0,71,0.00,,---,0.04,VWS V14.01,2013-02-25 01:42:00,
2013-02-24 18:47:00,27.3,19.1,30.09,NNE,20,2.0,2.0,71,0.00,,---,0.04,VWS V14.01,2013-02-25 01:47:00,
2013-02-24 18:52:00,27.2,19.1,30.09,NNE,20,0.0,0.0,71,0.00,,---,0.04,VWS V14.01,2013-02-25 01:52:00,
2013-02-24 18:57:00,27.0,19.2,30.09,NNE,20,0.0,0.0,72,0.00,,---,0.04,VWS V14.01,2013-02-25 01:57:00,
2013-02-24 19:02:00,26.7,18.9,30.10,NNE,20,0.0,0.0,72,0.00,,---,0.04,VWS V14.01,2013-02-25 02:02:00,
2013-02-24 19:08:00,26.6,19.4,30.10,NNE,20,0.0,0.0,74,0.00,,---,0.04,VWS V14.01,2013-02-25 02:08:00,
2013-02-24 19:13:00,26.4,19.2,30.10,NNE,20,1.0,2.0,74,0.00,,---,0.04,VWS V14.01,2013-02-25 02:13:00,
2013-02-24 19:18:00,26.4,19.6,30.11,NNE,20,0.0,0.0,75,0.00,,---,0.04,VWS V14.01,2013-02-25 02:18:00,
2013-02-24 19:23:00,26.3,19.8,30.11,NNE,20,0.0,0.0,76,0.00,,---,0.04,VWS V14.01,2013-02-25 02:23:00,
2013-02-24 19:28:00,26.4,19.9,30.11,NNE,20,0.0,0.0,76,0.00,,---,0.04,VWS V14.01,2013-02-25 02:28:00,
2013-02-24 19:33:00,26.6,20.1,30.12,NNE,20,0.0,0.0,76,0.00,,---,0.04,VWS V14.01,2013-02-25 02:33:00,
2013-02-24 19:38:00,26.6,20.1,30.12,NNE,20,0.0,1.0,76,0.00,,---,0.04,VWS V14.01,2013-02-25 02:38:00,
2013-02-24 19:44:00,26.6,20.1,30.12,NNE,20,1.0,2.0,76,0.00,,---,0.04,VWS V14.01,2013-02-25 02:44:00,
2013-02-24 19:49:00,26.6,19.8,30.12,NNE,20,0.0,1.0,75,0.00,,---,0.04,VWS V14.01,2013-02-25 02:49:00,
2013-02-24 19:55:00,26.6,19.8,30.12,NNE,20,0.0,0.0,75,0.00,,---,0.04,VWS V14.01,2013-02-25 02:55:00,
2013-02-24 20:00:00,26.4,19.6,30.14,NNE,20,0.0,0.0,75,0.00,,---,0.04,VWS V14.01,2013-02-25 03:00:00,
2013-02-24 20:06:00,26.4,19.2,30.14,NNE,20,0.0,0.0,74,0.00,,---,0.04,VWS V14.01,2013-02-25 03:06:00,
2013-02-24 20:11:00,26.4,19.2,30.14,NNE,20,0.0,1.0,74,0.00,,---,0.04,VWS V14.01,2013-02-25 03:11:00,
2013-02-24 20:16:00,26.4,18.9,30.13,NNE,20,0.0,0.0,73,0.00,,---,0.04,VWS V14.01,2013-02-25 03:16:00,
2013-02-24 20:22:00,26.4,18.9,30.13,NNE,20,1.0,1.0,73,0.00,,---,0.04,VWS V14.01,2013-02-25 03:22:00,
2013-02-24 20:27:00,26.4,18.6,30.13,NNE,20,0.0,0.0,72,0.00,,---,0.04,VWS V14.01,2013-02-25 03:27:00,
2013-02-24 20:32:00,26.3,18.5,30.13,NNE,20,1.0,2.0,72,0.00,,---,0.04,VWS V14.01,2013-02-25 03:32:00,
2013-02-24 20:38:00,26.1,18.3,30.13,NNE,20,0.0,0.0,72,0.00,,---,0.04,VWS V14.01,2013-02-25 03:38:00,
2013-02-24 20:43:00,26.0,18.2,30.13,NNE,20,1.0,1.0,72,0.00,,---,0.04,VWS V14.01,2013-02-25 03:43:00,
2013-02-24 20:48:00,25.8,18.0,30.14,NNE,21,1.0,3.0,72,0.00,,---,0.04,VWS V14.01,2013-02-25 03:48:00,
2013-02-24 20:54:00,25.8,17.7,30.14,NNE,21,0.0,0.0,71,0.00,,---,0.04,VWS V14.01,2013-02-25 03:54:00,
2013-02-24 21:00:00,25.7,17.6,30.15,NNE,21,0.0,0.0,71,0.00,,---,0.04,VWS V14.01,2013-02-25 04:00:00,
2013-02-24 21:05:00,25.4,17.6,30.15,NNE,21,0.0,0.0,72,0.00,,---,0.04,VWS V14.01,2013-02-25 04:05:00,
2013-02-24 21:10:00,25.0,17.3,30.15,NNE,21,0.0,2.0,72,0.00,,---,0.04,VWS V14.01,2013-02-25 04:10:00,
2013-02-24 21:17:00,24.7,17.3,30.15,NNE,21,1.0,2.0,73,0.00,,---,0.04,VWS V14.01,2013-02-25 04:17:00,
2013-02-24 21:23:00,24.5,17.1,30.15,NNE,21,2.0,2.0,73,0.00,,---,0.04,VWS V14.01,2013-02-25 04:23:00,
2013-02-24 21:28:00,24.4,17.3,30.15,NNE,21,0.0,0.0,74,0.00,,---,0.04,VWS V14.01,2013-02-25 04:28:00,
2013-02-24 21:34:00,23.9,16.8,30.15,NNE,21,0.0,0.0,74,0.00,,---,0.04,VWS V14.01,2013-02-25 04:34:00,
2013-02-24 21:39:00,23.6,16.5,30.15,NNE,21,0.0,0.0,74,0.00,,---,0.04,VWS V14.01,2013-02-25 04:39:00,
2013-02-24 21:45:00,23.3,16.6,30.16,NNE,21,0.0,0.0,75,0.00,,---,0.04,VWS V14.01,2013-02-25 04:45:00,
2013-02-24 21:50:00,23.3,16.9,30.16,NNE,21,0.0,0.0,76,0.00,,---,0.04,VWS V14.01,2013-02-25 04:50:00,
2013-02-24 21:55:00,23.0,16.6,30.16,NNE,21,0.0,1.0,76,0.00,,---,0.04,VWS V14.01,2013-02-25 04:55:00,
2013-02-24 22:00:00,22.9,16.5,30.18,NNE,21,0.0,0.0,76,0.00,,---,0.04,VWS V14.01,2013-02-25 05:00:00,
2013-02-24 22:02:00,22.7,16.3,30.18,NNE,21,0.0,0.0,76,0.00,,---,0.04,VWS V14.01,2013-02-25 05:02:00,
2013-02-24 22:06:00,22.4,16.0,30.18,NNE,21,0.0,0.0,76,0.00,,---,0.04,VWS V14.01,2013-02-25 05:06:00,
2013-02-24 22:07:00,22.2,15.8,30.18,NNE,21,0.0,0.0,76,0.00,,---,0.04,VWS V14.01,2013-02-25 05:07:00,
2013-02-24 22:12:00,21.6,15.5,30.18,NNE,21,0.0,0.0,77,0.00,,---,0.04,VWS V14.01,2013-02-25 05:12:00,
2013-02-24 22:17:00,21.3,15.5,30.17,NNE,21,0.0,0.0,78,0.00,,---,0.04,VWS V14.01,2013-02-25 05:17:00,
2013-02-24 22:22:00,21.0,15.2,30.17,NNE,21,0.0,0.0,78,0.00,,---,0.04,VWS V14.01,2013-02-25 05:22:00,
2013-02-24 22:28:00,20.6,15.4,30.17,NNE,21,0.0,0.0,80,0.00,,---,0.04,VWS V14.01,2013-02-25 05:28:00,
2013-02-24 22:33:00,20.5,15.3,30.17,NNE,21,0.0,0.0,80,0.00,,---,0.04,VWS V14.01,2013-02-25 05:33:00,
2013-02-24 22:38:00,20.6,15.4,30.17,NNE,21,0.0,0.0,80,0.00,,---,0.04,VWS V14.01,2013-02-25 05:38:00,
2013-02-24 22:43:00,20.6,15.4,30.17,NNE,21,0.0,0.0,80,0.00,,---,0.04,VWS V14.01,2013-02-25 05:43:00,
2013-02-24 22:48:00,20.8,15.6,30.17,NNE,21,2.0,3.0,80,0.00,,---,0.04,VWS V14.01,2013-02-25 05:48:00,
2013-02-24 22:53:00,20.6,15.4,30.17,NNE,21,0.0,0.0,80,0.00,,---,0.04,VWS V14.01,2013-02-25 05:53:00,
2013-02-24 22:58:00,20.5,15.0,30.17,NNE,21,0.0,0.0,79,0.00,,---,0.04,VWS V14.01,2013-02-25 05:58:00,
2013-02-24 23:04:00,20.0,14.6,30.17,NNE,21,0.0,0.0,79,0.00,,---,0.04,VWS V14.01,2013-02-25 06:04:00,
2013-02-24 23:09:00,19.7,14.5,30.17,NNE,21,0.0,0.0,80,0.00,,---,0.04,VWS V14.01,2013-02-25 06:09:00,
2013-02-24 23:14:00,19.4,14.2,30.16,NNE,21,0.0,0.0,80,0.00,,---,0.04,VWS V14.01,2013-02-25 06:14:00,
2013-02-24 23:19:00,19.1,14.2,30.16,NNE,21,0.0,0.0,81,0.00,,---,0.04,VWS V14.01,2013-02-25 06:19:00,
2013-02-24 23:25:00,18.8,13.9,30.16,NNE,21,0.0,0.0,81,0.00,,---,0.04,VWS V14.01,2013-02-25 06:25:00,
2013-02-24 23:30:00,18.6,13.8,30.16,NNE,21,0.0,0.0,81,0.00,,---,0.04,VWS V14.01,2013-02-25 06:30:00,
2013-02-24 23:35:00,18.3,13.7,30.16,NNE,21,0.0,0.0,82,0.00,,---,0.04,VWS V14.01,2013-02-25 06:35:00,
2013-02-24 23:40:00,18.6,14.3,30.16,NNE,21,0.0,0.0,83,0.00,,---,0.04,VWS V14.01,2013-02-25 06:40:00,
2013-02-24 23:45:00,18.6,14.3,30.17,NNE,21,0.0,0.0,83,0.00,,---,0.04,VWS V14.01,2013-02-25 06:45:00,
2013-02-24 23:50:00,18.6,14.3,30.17,NNE,21,0.0,0.0,83,0.00,,---,0.04,VWS V14.01,2013-02-25 06:50:00,
2013-02-24 23:55:00,18.1,13.8,30.17,NNE,21,0.0,0.0,83,0.00,,---,0.04,VWS V14.01,2013-02-25 06:55:00,